Bartlesville, OK (74003)

12:49 AM CST on February 08, 2016 (GMT -0600)
Bartlesville - Osage County | | Change Station
CLOSE
Current Station
Personal Weather Station
Location: Bartlesville, OK
Elevation: 873 ft
Nearby Weather Stations

Elev 873 ft 36.76 °N, 96.04 °W | Updated 4 minutes ago

Clear
Clear
36.9 °F
Feels Like 34 °F
N
4.0
Wind Variable Wind from WNW
Gusts 9.0 mph

Today
High -- | Low -- °F
--% Chance of Precip.
Yesterday
High -- | Low -- °F
Precip. -- in
Pressure 30.18 in
Visibility 10.0 miles
Clouds Clear
Windchill 34 °F
Dew Point 24 °F
Humidity 59%
Rainfall 0.00 in
Snow Depth Not available.
7:20 AM 5:56 PM
Waning Crescent, 0% visible
METAR KBVO 080553Z AUTO 29009G14KT 10SM CLR 04/M07 A3019 RMK AO2 SLP220 T00441067 10106 20044 401610006 51004 TSNO $
Pressure 30.18 in
Visibility 10.0 miles
Clouds Clear
Windchill 34 °F
Dew Point 24 °F
Humidity 59%
Rainfall 0.00 in
Snow Depth Not available.
7:20 AM 5:56 PM
Waning Crescent, 0% visible
METAR KBVO 080553Z AUTO 29009G14KT 10SM CLR 04/M07 A3019 RMK AO2 SLP220 T00441067 10106 20044 401610006 51004 TSNO $

10-Day Weather Forecast

Almanac

Astronomy

Feb. 08, 2016 Rise Set
Actual Time
Civil Twilight
Nautical Twilight
Astronomical Twilight
Moon
Length of Visible Light
Length of Day
Tomorrow will be .
, % of the Moon is Illuminated

Today's Extremes

State Highs State Lows

Community

WunderPhotos

Upload Photos

1,891,395 photos uploaded!

WunderBlog® & News

Nearby

Air Quality

  Air Quality AQ Index Pollutant
Not available.

Snow Depth

Station Depth Elevation

Earthquake Activity

City Distance Mag. Time & Date
Minimum magnitude displayed is 2.5.

Coastal Water Temperatures

Place Temperature

Stations

Nearby Weather Stations

Station Location Temp. Windchill Dew Point Humidity Wind Precip. Elev Updated Type
                   

Watches & Warnings

There are currently no watches in effect.